XIO229 EDDW-EGLF
Flight info
| Callsign | XIO229 |
|---|---|
| Flight time | N/A |
| Altitude | 39000 |
| Route | OKWEL1L/27 OKWEL N125 SILQI N872 PAM L980 IDRID M40 SABER L980 LAM L179 ICTAM Q63 CPT |
| Aircraft | C700/M-SBDE1E2E3FGHIJ1J3J4J7P2RWXYZ/LB2D1 |
Departure
| Time | N/A |
|---|---|
| Airport | Bremen Airport (EDDW) |
Arrival
| Time | 2026-05-03 21:06 |
|---|---|
| Airport | Farnborough Airport (EGLF) |
| Time | Latitude | Longitude | Altitude | Speed | Heading |
|---|---|---|---|---|---|
| 2026-05-03 20:15 | 52.58170 | 5.55057 | 44079 ft | 451 kts | 229° |
| 2026-05-03 20:15 | 52.56102 | 5.51183 | 44261 ft | 452 kts | 229° |
| 2026-05-03 20:15 | 52.54026 | 5.47304 | 44443 ft | 452 kts | 229° |
| 2026-05-03 20:15 | 52.51938 | 5.43411 | 44600 ft | 453 kts | 229° |
| 2026-05-03 20:16 | 52.49862 | 5.39546 | 44756 ft | 453 kts | 229° |
| 2026-05-03 20:16 | 52.47774 | 5.35663 | 44914 ft | 453 kts | 229° |
| 2026-05-03 20:16 | 52.45674 | 5.31763 | 44914 ft | 457 kts | 229° |
| 2026-05-03 20:17 | 52.41455 | 5.23943 | 44915 ft | 457 kts | 229° |
| 2026-05-03 20:17 | 52.37253 | 5.16179 | 44893 ft | 453 kts | 229° |
| 2026-05-03 20:18 | 52.33563 | 5.07952 | 44906 ft | 449 kts | 242° |
| 2026-05-03 20:18 | 52.31278 | 4.98444 | 44912 ft | 450 kts | 251° |
| 2026-05-03 20:19 | 52.29285 | 4.88779 | 44916 ft | 453 kts | 251° |
| 2026-05-03 20:19 | 52.27264 | 4.78980 | 44921 ft | 456 kts | 251° |
| 2026-05-03 20:20 | 52.25222 | 4.69143 | 44918 ft | 457 kts | 250° |
| 2026-05-03 20:20 | 52.23182 | 4.59355 | 44906 ft | 455 kts | 250° |
| 2026-05-03 20:21 | 52.21141 | 4.49613 | 44904 ft | 453 kts | 250° |
| 2026-05-03 20:21 | 52.19100 | 4.39919 | 44893 ft | 451 kts | 250° |
| 2026-05-03 20:22 | 52.17066 | 4.30299 | 44892 ft | 452 kts | 250° |
| 2026-05-03 20:22 | 52.15079 | 4.20948 | 44904 ft | 454 kts | 250° |
| 2026-05-03 20:23 | 52.13001 | 4.11217 | 44907 ft | 455 kts | 250° |
| 2026-05-03 20:23 | 52.10910 | 4.01469 | 44911 ft | 457 kts | 250° |
| 2026-05-03 20:24 | 52.08806 | 3.91710 | 44922 ft | 457 kts | 250° |
| 2026-05-03 20:24 | 52.06696 | 3.81966 | 44915 ft | 456 kts | 250° |
| 2026-05-03 20:25 | 52.04589 | 3.72275 | 44912 ft | 454 kts | 250° |
| 2026-05-03 20:25 | 52.02478 | 3.62617 | 44912 ft | 453 kts | 250° |
| 2026-05-03 20:26 | 52.00370 | 3.53038 | 44912 ft | 452 kts | 250° |
| 2026-05-03 20:26 | 51.99009 | 3.43101 | 44912 ft | 453 kts | 260° |
| 2026-05-03 20:27 | 51.98058 | 3.32964 | 44929 ft | 456 kts | 260° |
| 2026-05-03 20:27 | 51.97093 | 3.22768 | 44926 ft | 458 kts | 260° |
| 2026-05-03 20:28 | 51.96243 | 3.12464 | 44922 ft | 460 kts | 263° |
| 2026-05-03 20:28 | 51.95591 | 3.02156 | 44918 ft | 459 kts | 263° |
| 2026-05-03 20:29 | 51.94912 | 2.91887 | 44918 ft | 457 kts | 263° |
| 2026-05-03 20:29 | 51.94235 | 2.81662 | 44903 ft | 455 kts | 263° |
| 2026-05-03 20:30 | 51.93552 | 2.71532 | 44910 ft | 455 kts | 262° |
| 2026-05-03 20:30 | 51.92854 | 2.61307 | 44901 ft | 457 kts | 262° |
| 2026-05-03 20:31 | 51.92146 | 2.51035 | 44899 ft | 459 kts | 262° |
| 2026-05-03 20:31 | 51.91417 | 2.40635 | 44186 ft | 472 kts | 262° |
| 2026-05-03 20:31 | 51.91044 | 2.35345 | 43565 ft | 471 kts | 262° |
| 2026-05-03 20:32 | 51.90767 | 2.30149 | 42949 ft | 468 kts | 266° |
| 2026-05-03 20:32 | 51.90667 | 2.24897 | 42337 ft | 463 kts | 266° |
| 2026-05-03 20:32 | 51.90549 | 2.19727 | 41733 ft | 457 kts | 266° |
| 2026-05-03 20:32 | 51.90418 | 2.14610 | 41135 ft | 451 kts | 265° |
| 2026-05-03 20:33 | 51.90294 | 2.09569 | 40545 ft | 446 kts | 265° |
| 2026-05-03 20:33 | 51.90178 | 2.04565 | 39961 ft | 442 kts | 265° |
| 2026-05-03 20:33 | 51.90056 | 1.99592 | 39380 ft | 440 kts | 265° |
| 2026-05-03 20:33 | 51.89928 | 1.94630 | 38814 ft | 440 kts | 265° |
| 2026-05-03 20:34 | 51.89688 | 1.89753 | 38166 ft | 440 kts | 259° |
| 2026-05-03 20:34 | 51.89024 | 1.84891 | 37584 ft | 438 kts | 251° |
| 2026-05-03 20:34 | 51.88081 | 1.80247 | 37024 ft | 439 kts | 249° |
| 2026-05-03 20:34 | 51.87121 | 1.75532 | 36433 ft | 442 kts | 250° |
| 2026-05-03 20:35 | 51.86160 | 1.70776 | 35848 ft | 445 kts | 249° |
| 2026-05-03 20:35 | 51.85192 | 1.66028 | 35263 ft | 445 kts | 249° |
| 2026-05-03 20:35 | 51.84215 | 1.61279 | 34672 ft | 444 kts | 249° |
| 2026-05-03 20:35 | 51.83242 | 1.56545 | 34087 ft | 442 kts | 249° |
| 2026-05-03 20:36 | 51.82276 | 1.51845 | 33460 ft | 439 kts | 249° |
| 2026-05-03 20:36 | 51.81313 | 1.47173 | 32884 ft | 437 kts | 249° |
| 2026-05-03 20:36 | 51.80350 | 1.42522 | 32294 ft | 440 kts | 248° |
| 2026-05-03 20:36 | 51.79369 | 1.37798 | 31726 ft | 444 kts | 248° |
| 2026-05-03 20:37 | 51.78387 | 1.33066 | 31144 ft | 446 kts | 248° |
| 2026-05-03 20:37 | 51.77404 | 1.28336 | 30552 ft | 443 kts | 248° |
| 2026-05-03 20:37 | 51.76428 | 1.23654 | 29968 ft | 436 kts | 248° |
| 2026-05-03 20:37 | 51.75466 | 1.19061 | 29358 ft | 428 kts | 247° |
| 2026-05-03 20:38 | 51.74521 | 1.14560 | 28803 ft | 421 kts | 248° |
| 2026-05-03 20:38 | 51.73580 | 1.10089 | 28247 ft | 420 kts | 248° |
| 2026-05-03 20:38 | 51.72638 | 1.05620 | 27696 ft | 419 kts | 248° |
| 2026-05-03 20:38 | 51.71711 | 1.01226 | 27148 ft | 418 kts | 248° |
| 2026-05-03 20:39 | 51.70796 | 0.96793 | 26601 ft | 416 kts | 250° |
| 2026-05-03 20:39 | 51.70198 | 0.92235 | 26058 ft | 415 kts | 258° |
| 2026-05-03 20:39 | 51.69879 | 0.87622 | 25516 ft | 412 kts | 260° |
| 2026-05-03 20:39 | 51.69565 | 0.83066 | 24974 ft | 407 kts | 260° |
| 2026-05-03 20:40 | 51.69239 | 0.78532 | 24441 ft | 404 kts | 260° |
| 2026-05-03 20:40 | 51.68920 | 0.74053 | 23910 ft | 401 kts | 260° |
| 2026-05-03 20:40 | 51.68608 | 0.69617 | 23366 ft | 398 kts | 261° |
| 2026-05-03 20:40 | 51.68295 | 0.65211 | 22819 ft | 393 kts | 261° |
| 2026-05-03 20:41 | 51.67983 | 0.60870 | 22306 ft | 389 kts | 261° |
| 2026-05-03 20:41 | 51.67670 | 0.56557 | 21793 ft | 388 kts | 261° |
| 2026-05-03 20:41 | 51.67359 | 0.52244 | 21282 ft | 387 kts | 261° |
| 2026-05-03 20:41 | 51.67044 | 0.47920 | 20923 ft | 392 kts | 261° |
| 2026-05-03 20:42 | 51.66716 | 0.43461 | 20912 ft | 409 kts | 261° |
| 2026-05-03 20:42 | 51.66380 | 0.38877 | 20915 ft | 415 kts | 261° |
| 2026-05-03 20:42 | 51.66038 | 0.34272 | 20908 ft | 413 kts | 261° |
| 2026-05-03 20:42 | 51.65695 | 0.29696 | 20908 ft | 410 kts | 261° |
| 2026-05-03 20:43 | 51.65361 | 0.25187 | 20911 ft | 410 kts | 261° |
| 2026-05-03 20:43 | 51.65018 | 0.20608 | 20908 ft | 411 kts | 261° |
| 2026-05-03 20:43 | 51.64669 | 0.16057 | 20912 ft | 402 kts | 260° |
| 2026-05-03 20:43 | 51.64265 | 0.11774 | 20211 ft | 378 kts | 258° |
| 2026-05-03 20:44 | 51.63807 | 0.07621 | 18914 ft | 377 kts | 257° |
| 2026-05-03 20:44 | 51.63343 | 0.03483 | 17725 ft | 373 kts | 258° |
| 2026-05-03 20:44 | 51.63050 | 0.00754 | 17015 ft | 370 kts | 258° |
| 2026-05-03 20:44 | 51.62571 | -0.03816 | 16929 ft | 364 kts | 258° |
| 2026-05-03 20:45 | 51.62277 | -0.06529 | 16936 ft | 378 kts | 258° |
| 2026-05-03 20:45 | 51.61821 | -0.10689 | 16937 ft | 373 kts | 258° |
| 2026-05-03 20:45 | 51.61453 | -0.14771 | 16935 ft | 368 kts | 261° |
| 2026-05-03 20:45 | 51.61130 | -0.18860 | 16936 ft | 368 kts | 261° |
| 2026-05-03 20:46 | 51.60790 | -0.22960 | 16938 ft | 370 kts | 260° |
| 2026-05-03 20:46 | 51.60442 | -0.27057 | 16939 ft | 371 kts | 260° |
| 2026-05-03 20:46 | 51.60101 | -0.31183 | 16914 ft | 371 kts | 260° |
| 2026-05-03 20:46 | 51.59765 | -0.35283 | 16913 ft | 370 kts | 260° |
| 2026-05-03 20:47 | 51.59420 | -0.39395 | 16664 ft | 374 kts | 260° |
| 2026-05-03 20:47 | 51.59069 | -0.43542 | 16176 ft | 373 kts | 260° |
| 2026-05-03 20:47 | 51.58731 | -0.47575 | 15696 ft | 366 kts | 260° |
| 2026-05-03 20:47 | 51.58390 | -0.51610 | 15213 ft | 360 kts | 260° |
| 2026-05-03 20:48 | 51.58053 | -0.55559 | 14915 ft | 352 kts | 260° |
| 2026-05-03 20:48 | 51.57725 | -0.59391 | 14913 ft | 352 kts | 260° |
| 2026-05-03 20:48 | 51.57383 | -0.63343 | 14917 ft | 360 kts | 260° |
| 2026-05-03 20:48 | 51.57041 | -0.67340 | 14915 ft | 361 kts | 260° |
| 2026-05-03 20:49 | 51.56696 | -0.71333 | 14914 ft | 362 kts | 259° |
| 2026-05-03 20:49 | 51.56346 | -0.75344 | 14912 ft | 362 kts | 260° |
| 2026-05-03 20:49 | 51.55997 | -0.79346 | 14910 ft | 362 kts | 260° |
| 2026-05-03 20:49 | 51.55646 | -0.83364 | 14909 ft | 363 kts | 259° |
| 2026-05-03 20:50 | 51.55294 | -0.87373 | 14903 ft | 363 kts | 259° |
| 2026-05-03 20:50 | 51.54939 | -0.91393 | 14686 ft | 365 kts | 259° |
| 2026-05-03 20:50 | 51.54646 | -0.94691 | 14319 ft | 365 kts | 259° |
| 2026-05-03 20:50 | 51.54291 | -0.98707 | 13847 ft | 360 kts | 259° |
| 2026-05-03 20:51 | 51.53939 | -1.02660 | 13348 ft | 355 kts | 259° |
| 2026-05-03 20:51 | 51.53588 | -1.06562 | 12880 ft | 350 kts | 259° |
| 2026-05-03 20:51 | 51.53238 | -1.10435 | 12423 ft | 349 kts | 259° |
| 2026-05-03 20:51 | 51.52862 | -1.14263 | 11958 ft | 347 kts | 256° |
| 2026-05-03 20:52 | 51.51927 | -1.17689 | 11489 ft | 343 kts | 232° |
| 2026-05-03 20:52 | 51.50148 | -1.20078 | 11045 ft | 311 kts | 206° |
| 2026-05-03 20:52 | 51.48233 | -1.20656 | 10714 ft | 285 kts | 178° |
| 2026-05-03 20:52 | 51.46225 | -1.19912 | 10398 ft | 303 kts | 157° |
| 2026-05-03 20:53 | 51.44385 | -1.18347 | 10058 ft | 293 kts | 152° |
| 2026-05-03 20:53 | 51.42643 | -1.16796 | 9706 ft | 280 kts | 154° |
| 2026-05-03 20:53 | 51.40929 | -1.15452 | 9364 ft | 269 kts | 156° |
| 2026-05-03 20:53 | 51.39269 | -1.14202 | 9091 ft | 258 kts | 156° |
| 2026-05-03 20:54 | 51.37698 | -1.12976 | 8830 ft | 249 kts | 155° |
| 2026-05-03 20:54 | 51.34775 | -1.10238 | 8261 ft | 239 kts | 138° |
| 2026-05-03 20:54 | 51.33737 | -1.08234 | 7999 ft | 236 kts | 126° |
| 2026-05-03 20:55 | 51.32826 | -1.06065 | 7727 ft | 233 kts | 126° |
| 2026-05-03 20:55 | 51.31911 | -1.03944 | 7454 ft | 230 kts | 126° |
| 2026-05-03 20:55 | 51.31005 | -1.01843 | 7184 ft | 229 kts | 126° |
| 2026-05-03 20:55 | 51.30108 | -0.99756 | 6916 ft | 228 kts | 126° |
| 2026-05-03 20:56 | 51.29207 | -0.97659 | 6650 ft | 228 kts | 126° |
| 2026-05-03 20:56 | 51.28311 | -0.95585 | 6382 ft | 228 kts | 126° |
| 2026-05-03 20:56 | 51.27411 | -0.93485 | 6094 ft | 228 kts | 126° |
| 2026-05-03 20:56 | 51.26515 | -0.91399 | 5820 ft | 227 kts | 126° |
| 2026-05-03 20:57 | 51.25625 | -0.89340 | 5560 ft | 227 kts | 126° |
| 2026-05-03 20:57 | 51.24729 | -0.87269 | 5292 ft | 227 kts | 126° |
| 2026-05-03 20:57 | 51.23852 | -0.85177 | 5020 ft | 227 kts | 121° |
| 2026-05-03 20:57 | 51.23332 | -0.82824 | 4811 ft | 225 kts | 105° |
| 2026-05-03 20:58 | 51.22939 | -0.80405 | 4616 ft | 223 kts | 106° |
| 2026-05-03 20:58 | 51.22528 | -0.78030 | 4412 ft | 223 kts | 106° |
| 2026-05-03 20:58 | 51.22120 | -0.75632 | 4221 ft | 223 kts | 106° |
| 2026-05-03 20:58 | 51.21717 | -0.73251 | 4027 ft | 224 kts | 106° |
| 2026-05-03 20:59 | 51.21314 | -0.70848 | 3831 ft | 224 kts | 104° |
| 2026-05-03 20:59 | 51.21221 | -0.68370 | 3621 ft | 225 kts | 84° |
| 2026-05-03 20:59 | 51.21652 | -0.65975 | 3430 ft | 226 kts | 65° |
| 2026-05-03 20:59 | 51.22488 | -0.63872 | 3237 ft | 225 kts | 56° |
| 2026-05-03 21:00 | 51.23362 | -0.61812 | 3032 ft | 222 kts | 57° |
| 2026-05-03 21:00 | 51.23921 | -0.60468 | 2997 ft | 215 kts | 56° |
| 2026-05-03 21:00 | 51.25035 | -0.57914 | 3003 ft | 207 kts | 55° |
| 2026-05-03 21:00 | 51.25857 | -0.56023 | 3021 ft | 210 kts | 56° |
| 2026-05-03 21:01 | 51.26689 | -0.54099 | 3012 ft | 208 kts | 54° |
| 2026-05-03 21:01 | 51.27739 | -0.52530 | 3004 ft | 211 kts | 31° |
| 2026-05-03 21:01 | 51.29114 | -0.51688 | 3016 ft | 213 kts | 9° |
| 2026-05-03 21:01 | 51.30571 | -0.51717 | 2948 ft | 216 kts | 348° |
| 2026-05-03 21:02 | 51.31954 | -0.52647 | 2693 ft | 216 kts | 325° |
| 2026-05-03 21:02 | 51.32996 | -0.54309 | 2416 ft | 209 kts | 303° |
| 2026-05-03 21:02 | 51.33571 | -0.56430 | 2158 ft | 204 kts | 282° |
| 2026-05-03 21:02 | 51.33625 | -0.58623 | 1997 ft | 196 kts | 262° |
| 2026-05-03 21:03 | 51.33223 | -0.60659 | 1989 ft | 193 kts | 243° |
| 2026-05-03 21:03 | 51.32573 | -0.62581 | 2029 ft | 200 kts | 243° |
| 2026-05-03 21:03 | 51.31945 | -0.64524 | 2050 ft | 190 kts | 242° |
| 2026-05-03 21:03 | 51.31377 | -0.66194 | 2050 ft | 152 kts | 242° |
| 2026-05-03 21:04 | 51.30894 | -0.67673 | 1789 ft | 146 kts | 242° |
| 2026-05-03 21:04 | 51.30432 | -0.69063 | 1551 ft | 139 kts | 242° |
| 2026-05-03 21:04 | 51.29982 | -0.70414 | 1331 ft | 137 kts | 242° |
| 2026-05-03 21:04 | 51.29535 | -0.71769 | 1113 ft | 137 kts | 243° |
| 2026-05-03 21:05 | 51.29091 | -0.73132 | 862 ft | 138 kts | 242° |
| 2026-05-03 21:05 | 51.28642 | -0.74482 | 658 ft | 137 kts | 240° |
| 2026-05-03 21:05 | 51.28189 | -0.75821 | 442 ft | 136 kts | 242° |
| 2026-05-03 21:05 | 51.27739 | -0.77158 | 240 ft | 135 kts | 241° |
| 2026-05-03 21:06 | 51.27381 | -0.78236 | 223 ft | 66 kts | 243° |
| 2026-05-03 21:06 | 51.27280 | -0.78530 | 225 ft | 25 kts | 243° |
| 2026-05-03 21:06 | 51.27246 | -0.78682 | 227 ft | 9 kts | 306° |
| 2026-05-03 21:06 | 51.27310 | -0.78724 | 230 ft | 9 kts | 9° |
| 2026-05-03 21:07 | 51.27351 | -0.78667 | 225 ft | 10 kts | 42° |
| 2026-05-03 21:07 | 51.27424 | -0.78562 | 222 ft | 17 kts | 41° |
| 2026-05-03 21:07 | 51.27524 | -0.78426 | 222 ft | 18 kts | 41° |
| 2026-05-03 21:07 | 51.27568 | -0.78365 | 221 ft | 10 kts | 41° |
| 2026-05-03 21:08 | 51.27630 | -0.78277 | 223 ft | 13 kts | 39° |
| 2026-05-03 21:08 | 51.27704 | -0.78152 | 219 ft | 17 kts | 34° |
| 2026-05-03 21:08 | 51.27772 | -0.78077 | 219 ft | 4 kts | 36° |
| 2026-05-03 21:08 | 51.27800 | -0.78046 | 219 ft | 10 kts | 34° |
| 2026-05-03 21:09 | 51.27859 | -0.77966 | 219 ft | 8 kts | 73° |
| 2026-05-03 21:09 | 51.27836 | -0.77929 | 219 ft | 1 kts | 152° |
| 2026-05-03 21:09 | 51.27832 | -0.77925 | 219 ft | 0 kts | 154° |